Map

Track Data

SID SEASON NUMBER BASIN SUBBASIN NAME ISO_TIME NATURE LAT LON WMO_WIND WMO_PRES WMO_AGENCY TRACK_TYPE DIST2LAND LANDFALL IFLAG USA_AGENCY USA_ATCF_ID USA_LAT USA_LON USA_RECORD USA_STATUS USA_WIND USA_PRES USA_SSHS USA_R34_NE USA_R34_SE USA_R34_SW USA_R34_NW USA_R50_NE USA_R50_SE USA_R50_SW USA_R50_NW USA_R64_NE USA_R64_SE USA_R64_SW USA_R64_NW USA_POCI USA_ROCI USA_RMW USA_EYE TOKYO_LAT TOKYO_LON TOKYO_GRADE TOKYO_WIND TOKYO_PRES TOKYO_R50_DIR TOKYO_R50_LONG TOKYO_R50_SHORT TOKYO_R30_DIR TOKYO_R30_LONG TOKYO_R30_SHORT TOKYO_LAND CMA_LAT CMA_LON CMA_CAT CMA_WIND CMA_PRES HKO_LAT HKO_LON HKO_CAT HKO_WIND HKO_PRES NEWDELHI_LAT NEWDELHI_LON NEWDELHI_GRADE NEWDELHI_WIND NEWDELHI_PRES NEWDELHI_CI NEWDELHI_DP NEWDELHI_POCI REUNION_LAT REUNION_LON REUNION_TYPE REUNION_WIND REUNION_PRES REUNION_TNUM REUNION_CI REUNION_RMW REUNION_R34_NE REUNION_R34_SE REUNION_R34_SW REUNION_R34_NW REUNION_R50_NE REUNION_R50_SE REUNION_R50_SW REUNION_R50_NW REUNION_R64_NE REUNION_R64_SE REUNION_R64_SW REUNION_R64_NW BOM_LAT BOM_LON BOM_TYPE BOM_WIND BOM_PRES BOM_TNUM BOM_CI BOM_RMW BOM_R34_NE BOM_R34_SE BOM_R34_SW BOM_R34_NW BOM_R50_NE BOM_R50_SE BOM_R50_SW BOM_R50_NW BOM_R64_NE BOM_R64_SE BOM_R64_SW BOM_R64_NW BOM_ROCI BOM_POCI BOM_EYE BOM_POS_METHOD BOM_PRES_METHOD NADI_LAT NADI_LON NADI_CAT NADI_WIND NADI_PRES WELLINGTON_LAT WELLINGTON_LON WELLINGTON_WIND WELLINGTON_PRES DS824_LAT DS824_LON DS824_STAGE DS824_WIND DS824_PRES TD9636_LAT TD9636_LON TD9636_STAGE TD9636_WIND TD9636_PRES TD9635_LAT TD9635_LON TD9635_WIND TD9635_PRES TD9635_ROCI NEUMANN_LAT NEUMANN_LON NEUMANN_CLASS NEUMANN_WIND NEUMANN_PRES MLC_LAT MLC_LON MLC_CLASS MLC_WIND MLC_PRES USA_GUST BOM_GUST BOM_GUST_PER REUNION_GUST REUNION_GUST_PER USA_SEAHGT USA_SEARAD_NE USA_SEARAD_SE USA_SEARAD_SW USA_SEARAD_NW STORM_SPEED STORM_DIR
1961354S13044 1962 124 SI MM ADA 1961-12-19 18:00:00 TS -12.8000 43.9000 reunion main 358 358 O____O___OO___ jtwc_sh SH021962 -12.6000 44.2000 -1 -13.4000 43.0000 99 9.90000 -12.6000 44.2000 TC -12.6000 44.2000 7 5 108
1961354S13044 1962 124 SI MM ADA 1961-12-19 21:00:00 TS -12.8730 44.1262 main 363 346 P____P___PP___ SH021962 -12.6350 44.3425 -1 -13.5627 43.4698 99 -12.6350 44.3425 TC -12.6593 44.3502 7 5 110
1961354S13044 1962 124 SI MM ADA 1961-12-20 00:00:00 TS -12.9587 44.3526 reunion main 344 329 O____O___OP___ jtwc_sh SH021962 -12.7000 44.5000 -1 -13.7000 43.9000 99 9.90000 -12.7000 44.5000 TC -12.7349 44.5103 7 5 114
1961354S13044 1962 124 SI MM ADA 1961-12-20 03:00:00 TS -13.0738 44.5814 main 329 313 P____P___PP___ SH021962 -12.8200 44.6850 -1 -13.8124 44.2652 99 -12.8200 44.6850 TC -12.8430 44.6903 7 5 121
1961354S13044 1962 124 SI MM ADA 1961-12-20 06:00:00 TS -13.2353 44.8294 reunion main 313 267 O____O___OO_O_ jtwc_sh SH021962 -13.0000 44.9000 -1 -14.0000 44.6000 99 9.90000 -13.0000 44.9000 TC 35 -13.0000 44.9000 2 -13.0000 44.9000 TC 25 7 128
1961354S13044 1962 124 SI MM ADA 1961-12-20 09:00:00 TS -13.4769 45.1092 main 267 220 P____P___PP_P_ SH021962 -13.2200 45.1500 -1 -14.3700 44.9723 99 -13.2200 45.1500 TC 35 -13.2183 45.1428 2 -13.2350 45.1525 TC 27 8 135
1961354S13044 1962 124 SI MM ADA 1961-12-20 12:00:00 TS -13.7727 45.3778 reunion main 220 180 O____O___OP_O_ jtwc_sh SH021962 -13.5000 45.4000 -1 -14.8000 45.3000 99 9.90000 -13.5000 45.4000 TC 35 -13.4953 45.3945 2 -13.5000 45.4000 TC 30 8 142
1961354S13044 1962 124 SI MM ADA 1961-12-20 15:00:00 TS -14.0899 45.6073 main 180 141 P____P___PP_P_ SH021962 -13.8275 45.6225 -1 -15.1499 45.5376 99 -13.8275 45.6225 TC 35 -13.8246 45.6240 2 -13.8200 45.6300 TC 32 8 150
1961354S13044 1962 124 SI MM ADA 1961-12-20 18:00:00 TS -14.4600 45.7800 reunion main 132 100 O____O___OO_O_ jtwc_sh SH021962 -14.2000 45.8000 -1 -15.5000 45.7000 99 9.90000 -14.2000 45.8000 TC 35 -14.2000 45.8000 2 -14.2000 45.8000 TC 35 8 160
1961354S13044 1962 124 SI MM ADA 1961-12-20 21:00:00 TS -14.8537 45.8992 main 93 54 P____P___PP_P_ SH021962 -14.5775 45.9375 -1 -15.9000 45.8300 99 -14.5775 45.9375 TC 30 -14.5783 45.9108 2 -14.6350 45.8801 TC 32 8 168
1961354S13044 1962 124 SI MM ADA 1961-12-21 00:00:00 TS -15.2805 45.9524 reunion main 54 11 O____O___OP_O_ jtwc_sh SH021962 -15.0000 46.0000 -1 -16.3000 45.9000 99 9.90000 -15.0000 46.0000 TC 25 -15.0024 45.9621 2 -15.1000 45.9000 TC 30 9 176
1961354S13044 1962 124 SI MM ADA 1961-12-21 03:00:00 TS -15.7155 45.9495 main 15 0 P____P___PP_P_ SH021962 -15.4700 45.9726 -1 -16.6425 45.9225 99 -15.4700 45.9726 TC 25 -15.4752 45.9574 2 -15.5200 45.9224 TC 30 9 183
1961354S13044 1962 124 SI MM ADA 1961-12-21 06:00:00 TS -16.2000 45.9000 reunion main 0 0 O____O___OO_O_ jtwc_sh SH021962 -16.0000 45.9000 -1 -17.0000 45.9000 99 9.90000 -16.0000 45.9000 TC 25 -16.0000 45.9000 1 -16.0000 45.9000 TC 30 11 184
1961354S13044 1962 124 SI MM ADA 1961-12-21 09:00:00 TS -16.7609 45.8635 main 0 0 P____P___PP_P_ SH021962 -16.5775 45.8797 -1 -17.4275 45.8798 99 -16.5775 45.8797 TC 25 -16.5947 45.8485 1 -16.6275 45.8299 TC 30 12 186
1961354S13044 1962 124 SI MM ADA 1961-12-21 12:00:00 TS -17.3669 45.7683 reunion main 0 0 O____O___OP_O_ jtwc_sh SH021962 -17.2000 45.8000 -1 -17.9000 45.8000 99 9.90000 -17.2000 45.8000 TC 25 -17.2344 45.7415 1 -17.3000 45.7000 TC 30 13 192
1961354S13044 1962 124 SI MM ADA 1961-12-21 15:00:00 TS -17.9763 45.5931 main 0 0 P____P___PP_P_ SH021962 -17.8574 45.6099 -1 -18.3774 45.6448 99 -17.8574 45.6099 TC 30 -17.8820 45.5638 1 -17.9074 45.5373 TC 32 13 199
1961354S13044 1962 124 SI MM ADA 1961-12-21 18:00:00 TS -18.5800 45.3200 reunion main 0 0 O____O___OO_O_ jtwc_sh SH021962 -18.5000 45.3000 -1 -18.9000 45.4000 99 9.90000 -18.5000 45.3000 TC 35 -18.5000 45.3000 2 -18.5000 45.3000 TC 35 13 207
1961354S13044 1962 124 SI MM ADA 1961-12-21 21:00:00 TS -19.1774 44.9613 main 0 0 P____P___PP_P_ SH021962 -19.0801 44.8800 -1 -19.4998 45.1023 99 -19.0801 44.8800 TC 35 -19.0971 44.9418 2 -19.1298 45.0024 TC 35 14 213
1961354S13044 1962 124 SI MM ADA 1961-12-22 00:00:00 TS -19.7301 44.5199 reunion main 0 0 O____O___OP_O_ jtwc_sh SH021962 -19.6000 44.4000 -1 -20.1000 44.7000 99 9.90000 -19.6000 44.4000 TC 35 -19.6503 44.4997 2 -19.7000 44.6000 TC 35 14 219
1961354S13044 1962 124 SI MM ADA 1961-12-22 03:00:00 TS -20.2336 44.0396 main 35 23 P____P___PP_P_ SH021962 -20.1022 43.9649 -1 -20.6527 44.1653 99 -20.1022 43.9649 TC 35 -20.1283 44.0075 2 -20.1824 44.0952 TC 35 13 227
1961354S13044 1962 124 SI MM ADA 1961-12-22 06:00:00 TS -20.6200 43.5200 reunion main 47 43 O____O___OO_O_ jtwc_sh SH021962 -20.5000 43.5000 -1 -21.1000 43.6000 99 9.90000 -20.5000 43.5000 TC 35 -20.5000 43.5000 2 -20.5000 43.5000 TC 35 12 239
1961354S13044 1962 124 SI MM ADA 1961-12-22 09:00:00 TS -20.8529 42.9486 main 83 83 P____P___PP_P_ SH021962 -20.7601 42.9424 -1 -21.4096 43.1496 99 -20.7601 42.9424 TC 35 -20.7540 42.8972 2 -20.5804 42.8118 TC 35 11 251
1961354S13044 1962 124 SI MM ADA 1961-12-22 12:00:00 TS -20.9802 42.4018 reunion main 122 122 O____O___OP_O_ jtwc_sh SH021962 -20.9000 42.4000 -1 -21.6000 42.7000 99 9.90000 -20.9000 42.4000 TC 35 -20.9011 42.3088 2 -20.6000 42.2000 TC 35 10 256
1961354S13044 1962 124 SI MM ADA 1961-12-22 15:00:00 TS -21.1045 41.8807 main 169 169 P____P___PP_P_ SH021962 -20.9800 41.8798 -1 -21.7905 42.0450 99 -20.9800 41.8798 TC 35 -20.9724 41.8411 2 -20.7997 41.7578 TC 35 8 256
1961354S13044 1962 124 SI MM ADA 1961-12-22 18:00:00 TS -21.1600 41.6000 reunion main 197 189 O____O___OO_O_ jtwc_sh SH021962 -21.0000 41.6000 -1 -21.8000 41.6000 99 9.90000 -21.0000 41.6000 TC 35 -21.0000 41.6000 2 -21.0000 41.6000 TC 35 1 273
1961354S13044 1962 124 SI MM ADA 1961-12-22 21:00:00 TS -21.0980 41.7376 main 189 151 P____P___PP_P_ SH021962 -21.0073 41.7225 -1 -21.4049 41.7310 99 -21.0073 41.7225 TC 35 -20.9830 41.7174 2 -21.0875 41.7948 TC 35 5 75
1961354S13044 1962 124 SI MM ADA 1961-12-23 00:00:00 TS -21.0281 42.1122 reunion main 151 112 O____O___OP_O_ jtwc_sh SH021962 -21.0000 42.1000 -1 -21.1000 42.1000 99 9.90000 -21.0000 42.1000 TC 35 -20.9403 42.0612 2 -21.1000 42.2000 TC 35 7 86
1961354S13044 1962 124 SI MM ADA 1961-12-23 03:00:00 TS -21.0475 42.5075 main 112 66 P____P___PP_P_ SH021962 -20.9552 42.5354 -1 -21.3949 42.3421 99 -20.9552 42.5354 TC 35 -20.9273 42.5242 2 -21.0051 42.6005 TC 35 8 101
1961354S13044 1962 124 SI MM ADA 1961-12-23 06:00:00 TS -21.1800 42.9200 reunion main 66 31 O____O___OO_O_ jtwc_sh SH021962 -21.0000 43.0000 -1 -21.9000 42.6000 99 9.90000 -21.0000 43.0000 TC 35 -21.0000 43.0000 2 -21.0000 43.0000 TC 35 8 122
1961354S13044 1962 124 SI MM ADA 1961-12-23 09:00:00 TS -21.4851 43.2569 main 20 0 P____P___PP_P_ SH021962 -21.2474 43.3724 -1 -22.2798 42.8701 99 -21.2474 43.3724 TC 35 -21.3535 43.3623 2 -21.2973 43.3073 TC 32 9 138
1961354S13044 1962 124 SI MM ADA 1961-12-23 12:00:00 TS -21.8555 43.5829 reunion main 0 0 O____O___OP_O_ jtwc_sh SH021962 -21.6000 43.7000 -1 -22.6000 43.2000 99 9.90000 -21.6000 43.7000 TC 35 -21.7777 43.7143 2 -21.7000 43.6000 TC 30 10 140
1961354S13044 1962 124 SI MM ADA 1961-12-23 15:00:00 TS -22.2366 43.9370 main 0 0 P____P___PP_P_ SH021962 -22.0250 44.0221 -1 -22.8977 43.6495 99 -22.0250 44.0221 TC 35 -22.1380 44.0344 2 -22.0976 43.9570 TC 27 9 133
1961354S13044 1962 124 SI MM ADA 1961-12-23 18:00:00 TS -22.4400 44.2600 reunion main 0 0 O____O___OO_O_ jtwc_sh SH021962 -22.3000 44.3000 -1 -23.0000 44.1000 99 9.90000 -22.3000 44.3000 TC 35 -22.3000 44.3000 2 -22.3000 44.3000 TC 25 6 98
1961354S13044 1962 124 SI MM ADA 1961-12-23 21:00:00 TS -22.3166 44.5329 main 0 0 P____P___PP_P_ SH021962 -22.2499 44.5378 -1 -22.7900 44.4909 99 -22.2499 44.5378 TC 35 -22.1658 44.4946 2 -22.1275 44.6031 TC 25 7 39
1961354S13044 1962 124 SI MM ADA 1961-12-24 00:00:00 TS -21.9365 44.7060 reunion main 0 0 O____O___OP_O_ jtwc_sh SH021962 -21.9000 44.7000 -1 -22.4000 44.7000 99 9.90000 -21.9000 44.7000 TC 35 -21.7823 44.6298 2 -21.7000 44.8000 TC 25 9 12
1961354S13044 1962 124 SI MM ADA 1961-12-24 03:00:00 TS -21.4046 44.7502 main 0 0 P____P___PP_P_ SH021962 -21.3125 44.7748 -1 -21.9951 44.6317 99 -21.3125 44.7748 TC 30 -21.2327 44.7251 2 -21.1700 44.8445 TC 22 11 0
1961354S13044 1962 124 SI MM ADA 1961-12-24 06:00:00 TS -20.8000 44.7200 reunion main 0 O____O___OO_O_ jtwc_sh SH021962 -20.6000 44.8000 -1 -21.6000 44.4000 99 9.90000 -20.6000 44.8000 TC 25 -20.6000 44.8000 1 -20.6000 44.8000 TC 20 12 357

About IBTrACS Database

This database is a web-friendly format of International Best Track Archive for Climate Stewardship (IBTrACS), a global best track data archive curated by NOAA dating back to 1842.

Updated: 2021-10-08